createdAt,value
2023-03-18T00:00:19.792Z,57.32
2023-03-18T00:03:05.415Z,57.00
2023-03-18T00:05:50.658Z,57.08
2023-03-18T00:08:36.045Z,56.98
2023-03-18T00:11:21.869Z,56.67
2023-03-18T00:14:08.428Z,56.84
2023-03-18T00:16:53.881Z,57.17
2023-03-18T00:19:39.154Z,57.08
2023-03-18T00:22:24.568Z,56.52
2023-03-18T00:25:14.955Z,57.13
2023-03-18T00:27:59.996Z,56.70
2023-03-18T00:30:45.910Z,55.83
2023-03-18T00:33:32.479Z,56.90
2023-03-18T00:36:18.740Z,58.17
2023-03-18T00:39:04.350Z,59.42
2023-03-18T00:41:49.585Z,59.69
2023-03-18T00:44:37.611Z,59.76
2023-03-18T00:47:23.247Z,59.45
2023-03-18T00:50:10.023Z,59.98
2023-03-18T00:52:55.293Z,59.96
2023-03-18T00:55:42.055Z,60.32
2023-03-18T00:58:27.193Z,60.14
2023-03-18T01:01:13.268Z,60.36
2023-03-18T01:03:59.652Z,60.30
2023-03-18T01:06:47.498Z,60.58
2023-03-18T01:09:32.895Z,61.10
2023-03-18T01:12:18.251Z,61.11
2023-03-18T01:15:04.303Z,60.98
2023-03-18T01:17:50.486Z,60.80
2023-03-18T01:20:35.827Z,61.10
2023-03-18T01:23:21.196Z,61.30
2023-03-18T01:26:07.285Z,60.69
2023-03-18T01:28:53.380Z,59.80
2023-03-18T01:31:39.016Z,58.89
2023-03-18T01:34:30.266Z,58.89
2023-03-18T01:37:15.519Z,59.19
2023-03-18T01:40:06.719Z,60.39
2023-03-18T01:43:14.636Z,60.02
2023-03-18T01:46:02.955Z,60.53
2023-03-18T01:48:49.086Z,60.04
2023-03-18T01:51:35.059Z,59.75
2023-03-18T01:54:22.656Z,59.60
2023-03-18T01:57:07.952Z,60.16
2023-03-18T01:59:55.411Z,60.01
2023-03-18T02:02:43.277Z,60.55
2023-03-18T02:05:29.523Z,60.13
2023-03-18T02:08:14.728Z,59.91
2023-03-18T02:11:00.836Z,60.36
2023-03-18T02:13:46.439Z,60.04
2023-03-18T02:16:38.784Z,59.52
2023-03-18T02:19:58.105Z,59.09
2023-03-18T02:22:49.727Z,58.66
2023-03-18T02:26:07.999Z,58.50
2023-03-18T02:28:59.347Z,58.53
2023-03-18T02:31:47.566Z,58.29
2023-03-18T02:34:33.722Z,58.48
2023-03-18T02:37:19.581Z,58.58
2023-03-18T02:40:13.576Z,58.69
2023-03-18T02:43:20.240Z,58.59
2023-03-18T02:46:41.805Z,58.83
2023-03-18T02:49:28.789Z,58.98
2023-03-18T02:52:15.279Z,58.84
2023-03-18T02:55:00.733Z,58.77
2023-03-18T02:57:47.156Z,58.69
2023-03-18T03:00:32.541Z,58.81
2023-03-18T03:03:18.286Z,58.50
2023-03-18T03:06:03.926Z,59.13
2023-03-18T03:08:50.518Z,59.13
2023-03-18T03:11:36.596Z,59.10
2023-03-18T03:14:29.924Z,58.65
2023-03-18T03:17:18.665Z,58.77
2023-03-18T03:20:06.586Z,58.94
2023-03-18T03:22:52.109Z,58.83
2023-03-18T03:25:38.170Z,58.54
2023-03-18T03:28:23.264Z,58.71
2023-03-18T03:31:10.606Z,58.78
2023-03-18T03:33:56.040Z,58.49
2023-03-18T03:36:41.606Z,58.22
2023-03-18T03:39:26.893Z,58.68
2023-03-18T03:42:12.333Z,58.42
2023-03-18T03:44:57.767Z,58.15
2023-03-18T03:47:44.212Z,58.11
2023-03-18T03:50:30.004Z,57.76
2023-03-18T03:53:15.439Z,57.57
2023-03-18T03:56:01.063Z,57.78
2023-03-18T03:58:46.839Z,57.89
2023-03-18T04:01:31.986Z,58.82
2023-03-18T04:04:17.210Z,59.57
2023-03-18T04:07:03.683Z,60.09
2023-03-18T04:09:48.878Z,60.20
2023-03-18T04:12:34.272Z,59.81
2023-03-18T04:15:21.528Z,60.09
2023-03-18T04:18:08.996Z,59.75
2023-03-18T04:20:56.048Z,58.96
2023-03-18T04:23:55.053Z,58.57
2023-03-18T04:26:40.269Z,58.73
2023-03-18T04:29:25.340Z,58.45
2023-03-18T04:32:11.321Z,58.35
2023-03-18T04:34:57.431Z,58.83
2023-03-18T04:37:43.708Z,59.32
2023-03-18T04:40:29.482Z,60.03
2023-03-18T04:43:15.160Z,60.19
2023-03-18T04:46:00.529Z,61.12
2023-03-18T04:48:46.960Z,61.16
2023-03-18T04:51:32.431Z,60.76
2023-03-18T04:54:19.080Z,60.76
2023-03-18T04:57:04.667Z,61.05
2023-03-18T04:59:51.912Z,61.20
2023-03-18T05:02:38.331Z,61.31
2023-03-18T05:05:24.389Z,61.24
2023-03-18T05:08:10.620Z,61.38
2023-03-18T05:10:56.315Z,61.28
2023-03-18T05:13:41.714Z,61.58
2023-03-18T05:16:28.671Z,61.41
2023-03-18T05:19:14.129Z,61.71
2023-03-18T05:22:06.746Z,61.94
2023-03-18T05:24:52.615Z,62.12
2023-03-18T05:27:41.397Z,61.90
2023-03-18T05:30:37.346Z,61.83
2023-03-18T05:33:23.382Z,61.83
2023-03-18T05:36:12.598Z,61.84
2023-03-18T05:39:08.786Z,61.67
2023-03-18T05:41:54.252Z,61.58
2023-03-18T05:44:44.089Z,61.85
2023-03-18T05:47:31.817Z,61.51
2023-03-18T05:50:33.295Z,61.81
2023-03-18T05:53:21.602Z,62.19
2023-03-18T05:56:11.971Z,62.76
2023-03-18T05:58:57.506Z,63.01
2023-03-18T06:02:03.960Z,63.76
2023-03-18T06:04:49.943Z,64.04
2023-03-18T06:07:35.112Z,64.11
2023-03-18T06:10:22.272Z,64.55
2023-03-18T06:13:11.936Z,64.71
2023-03-18T06:15:58.523Z,64.18
2023-03-18T06:18:45.814Z,64.08
2023-03-18T06:21:34.622Z,63.28
2023-03-18T06:24:22.312Z,63.19
2023-03-18T06:27:08.359Z,62.79
2023-03-18T06:29:54.403Z,63.00
2023-03-18T06:32:40.010Z,63.16
2023-03-18T06:35:25.319Z,63.72
2023-03-18T06:38:10.718Z,63.51
2023-03-18T06:40:56.508Z,63.47
2023-03-18T06:43:42.274Z,63.48
2023-03-18T06:46:28.782Z,63.45
2023-03-18T06:49:14.391Z,63.55
2023-03-18T06:52:05.885Z,63.71
2023-03-18T06:54:51.243Z,63.60
2023-03-18T06:57:36.758Z,63.21
2023-03-18T07:00:22.576Z,62.91
2023-03-18T07:03:08.198Z,63.10
2023-03-18T07:05:53.397Z,62.20
2023-03-18T07:08:40.042Z,62.66
2023-03-18T07:11:26.957Z,63.00
2023-03-18T07:14:13.267Z,63.18
2023-03-18T07:16:58.635Z,63.09
2023-03-18T07:19:44.306Z,62.98
2023-03-18T07:22:29.656Z,63.09
2023-03-18T07:25:15.539Z,62.38
2023-03-18T07:28:04.124Z,61.86
2023-03-18T07:30:50.634Z,61.72
2023-03-18T07:33:36.678Z,61.69
2023-03-18T07:36:24.222Z,60.51
2023-03-18T07:39:09.507Z,61.11
2023-03-18T07:41:55.554Z,60.44
2023-03-18T07:44:46.792Z,60.54
2023-03-18T07:47:32.159Z,59.15
2023-03-18T07:50:17.417Z,60.20
2023-03-18T07:53:03.267Z,60.44
2023-03-18T07:55:48.418Z,59.84
2023-03-18T07:58:34.404Z,59.95
2023-03-18T08:01:19.829Z,60.77
2023-03-18T08:04:05.477Z,61.93
2023-03-18T08:06:51.106Z,60.37
2023-03-18T08:09:36.564Z,59.58
2023-03-18T08:12:22.203Z,60.50
2023-03-18T08:15:08.843Z,59.85
2023-03-18T08:17:54.404Z,60.38
2023-03-18T08:20:39.666Z,60.43
2023-03-18T08:23:25.159Z,60.43
2023-03-18T08:26:11.281Z,61.11
2023-03-18T08:28:56.570Z,59.37
2023-03-18T08:31:41.818Z,59.24
2023-03-18T08:34:27.097Z,59.86
2023-03-18T08:37:12.377Z,59.78
2023-03-18T08:39:58.009Z,60.58
2023-03-18T08:42:43.802Z,60.82
2023-03-18T08:45:29.097Z,60.55
2023-03-18T08:48:14.259Z,60.27
2023-03-18T08:50:59.891Z,58.96
2023-03-18T08:53:45.534Z,59.47
2023-03-18T08:56:30.954Z,58.67
2023-03-18T08:59:16.330Z,57.05
2023-03-18T09:02:02.796Z,56.73
2023-03-18T09:04:48.315Z,56.90
2023-03-18T09:07:33.626Z,56.63
2023-03-18T09:10:19.978Z,55.22
2023-03-18T09:13:05.592Z,55.98
2023-03-18T09:15:51.004Z,54.69
2023-03-18T09:18:36.814Z,54.06
2023-03-18T09:21:22.408Z,55.14
2023-03-18T09:24:07.696Z,54.55
2023-03-18T09:26:52.972Z,53.00
2023-03-18T09:29:38.462Z,53.00
2023-03-18T09:32:23.935Z,53.00
2023-03-18T09:35:12.561Z,51.66
2023-03-18T09:37:58.261Z,51.82
2023-03-18T09:41:05.272Z,53.26
2023-03-18T09:44:05.120Z,52.02
2023-03-18T09:47:15.376Z,51.90
2023-03-18T09:50:32.299Z,53.04
2023-03-18T09:53:23.801Z,52.66
2023-03-18T09:56:15.808Z,52.31
2023-03-18T09:59:03.881Z,51.89
2023-03-18T10:01:53.304Z,50.00
2023-03-18T10:04:51.039Z,50.89
2023-03-18T10:07:40.867Z,51.01
2023-03-18T10:10:34.311Z,50.14
2023-03-18T10:13:27.728Z,48.71
2023-03-18T10:16:22.184Z,50.34
2023-03-18T10:19:08.528Z,48.06
2023-03-18T10:22:21.592Z,49.33
2023-03-18T10:25:22.533Z,48.00
2023-03-18T10:28:32.370Z,49.03
2023-03-18T10:31:23.885Z,48.98
2023-03-18T10:34:16.974Z,48.13
2023-03-18T10:37:57.047Z,47.41
2023-03-18T10:40:43.666Z,46.52
2023-03-18T10:43:32.315Z,47.12
2023-03-18T10:46:20.720Z,48.54
2023-03-18T10:49:35.723Z,48.53
2023-03-18T10:52:47.044Z,48.27
2023-03-18T10:56:11.690Z,48.69
2023-03-18T10:58:57.365Z,46.80
2023-03-18T11:01:46.963Z,47.99
2023-03-18T11:04:41.134Z,47.77
2023-03-18T11:07:28.236Z,48.52
2023-03-18T11:10:25.397Z,46.82
2023-03-18T11:13:19.983Z,45.95
2023-03-18T11:16:05.724Z,45.66
2023-03-18T11:18:52.029Z,45.74
2023-03-18T11:21:37.329Z,47.06
2023-03-18T11:24:27.243Z,46.03
2023-03-18T11:27:15.325Z,46.95
2023-03-18T11:30:14.682Z,45.15
2023-03-18T11:33:14.642Z,46.57
2023-03-18T11:36:09.348Z,45.69
2023-03-18T11:39:01.556Z,46.51
2023-03-18T11:41:47.744Z,46.53
2023-03-18T11:44:33.713Z,45.53
2023-03-18T11:47:30.260Z,45.12
2023-03-18T11:50:24.698Z,46.04
2023-03-18T11:53:19.936Z,45.96
2023-03-18T11:56:05.400Z,45.64
2023-03-18T11:59:22.548Z,44.40
2023-03-18T12:02:39.308Z,44.30
2023-03-18T12:05:39.326Z,44.25
2023-03-18T12:08:27.999Z,44.27
2023-03-18T12:11:45.700Z,43.22
2023-03-18T12:14:40.648Z,43.52
2023-03-18T12:17:44.126Z,42.08
2023-03-18T12:20:50.867Z,43.63
2023-03-18T12:24:08.694Z,43.28
2023-03-18T12:27:13.368Z,44.41
2023-03-18T12:30:22.575Z,45.23
2023-03-18T12:33:17.223Z,43.01
2023-03-18T12:36:17.759Z,44.09
2023-03-18T12:39:12.207Z,42.06
2023-03-18T12:42:10.118Z,41.92
2023-03-18T12:45:14.056Z,43.02
2023-03-18T12:48:09.477Z,40.95
2023-03-18T12:51:02.106Z,42.19
2023-03-18T12:53:51.922Z,41.44
2023-03-18T12:56:44.225Z,42.58
2023-03-18T12:59:39.468Z,42.34
2023-03-18T13:03:14.178Z,42.91
2023-03-18T13:06:11.604Z,42.10
2023-03-18T13:09:34.569Z,42.00
2023-03-18T13:12:43.524Z,43.04
2023-03-18T13:15:51.385Z,42.01
2023-03-18T13:18:44.664Z,41.81
2023-03-18T13:21:31.304Z,40.47
2023-03-18T13:24:43.852Z,41.42
2023-03-18T13:28:04.656Z,41.59
2023-03-18T13:31:05.112Z,41.56
2023-03-18T13:34:02.465Z,42.09
2023-03-18T13:37:04.603Z,39.50
2023-03-18T13:40:13.091Z,42.17
2023-03-18T13:43:03.520Z,41.54
2023-03-18T13:45:53.119Z,41.52
2023-03-18T13:48:40.861Z,40.86
2023-03-18T13:51:25.984Z,40.20
2023-03-18T13:54:16.615Z,40.21
2023-03-18T13:57:26.910Z,41.04
2023-03-18T14:00:29.347Z,41.43
2023-03-18T14:03:22.212Z,41.35
2023-03-18T14:06:07.322Z,40.84
2023-03-18T14:08:53.845Z,40.34
2023-03-18T14:11:46.641Z,40.81
2023-03-18T14:15:07.453Z,41.72
2023-03-18T14:17:57.903Z,41.47
2023-03-18T14:20:43.236Z,41.77
2023-03-18T14:23:36.127Z,41.58
2023-03-18T14:26:25.504Z,40.27
2023-03-18T14:29:11.053Z,41.27
2023-03-18T14:32:01.215Z,40.14
2023-03-18T14:34:52.764Z,39.37
2023-03-18T14:37:56.138Z,38.34
2023-03-18T14:40:46.604Z,39.59
2023-03-18T14:43:43.595Z,40.46
2023-03-18T14:46:36.070Z,38.27
2023-03-18T14:49:33.542Z,39.76
2023-03-18T14:52:39.358Z,40.04
2023-03-18T14:55:34.295Z,40.47
2023-03-18T14:58:22.593Z,40.98
2023-03-18T15:01:11.917Z,40.27
2023-03-18T15:03:57.043Z,41.27
2023-03-18T15:06:42.855Z,39.39
2023-03-18T15:09:31.449Z,41.78
2023-03-18T15:12:26.759Z,41.77
2023-03-18T15:15:16.806Z,41.58
2023-03-18T15:18:25.120Z,40.27
2023-03-18T15:21:21.156Z,42.05
2023-03-18T15:24:08.198Z,42.93
2023-03-18T15:27:12.819Z,40.34
2023-03-18T15:30:00.318Z,40.75
2023-03-18T15:32:48.616Z,41.03
2023-03-18T15:35:35.374Z,41.79
2023-03-18T15:38:28.012Z,42.27
2023-03-18T15:41:13.688Z,44.20
2023-03-18T15:43:59.607Z,44.18
2023-03-18T15:46:48.176Z,44.45
2023-03-18T15:49:33.713Z,43.56
2023-03-18T15:52:23.263Z,44.05
2023-03-18T15:55:30.724Z,43.59
2023-03-18T15:58:37.145Z,44.55
2023-03-18T16:01:22.762Z,44.39
2023-03-18T16:04:11.462Z,44.47
2023-03-18T16:06:56.907Z,45.02
2023-03-18T16:09:42.347Z,44.39
2023-03-18T16:12:30.490Z,45.52
2023-03-18T16:15:21.490Z,44.02
2023-03-18T16:18:09.694Z,44.60
2023-03-18T16:20:55.425Z,45.52
2023-03-18T16:23:41.135Z,47.96
2023-03-18T16:26:26.853Z,48.75
2023-03-18T16:29:18.152Z,50.59
2023-03-18T16:32:04.533Z,49.67
2023-03-18T16:34:49.645Z,49.93
2023-03-18T16:37:34.804Z,49.67
2023-03-18T16:40:22.810Z,53.14
2023-03-18T16:43:22.981Z,54.33
2023-03-18T16:46:13.388Z,55.24
2023-03-18T16:48:59.860Z,53.64
2023-03-18T16:51:45.192Z,54.56
2023-03-18T16:54:32.862Z,54.44
2023-03-18T16:57:20.235Z,51.43
2023-03-18T17:00:37.100Z,49.25
2023-03-18T17:03:22.631Z,48.16
2023-03-18T17:06:07.964Z,49.29
2023-03-18T17:08:53.126Z,49.56
2023-03-18T17:11:39.210Z,51.40
2023-03-18T17:14:32.747Z,52.09
2023-03-18T17:17:24.291Z,53.21
2023-03-18T17:20:22.193Z,53.71
2023-03-18T17:23:25.579Z,54.99
2023-03-18T17:26:12.555Z,57.15
2023-03-18T17:28:57.888Z,57.87
2023-03-18T17:31:43.311Z,58.91
2023-03-18T17:34:28.626Z,54.29
2023-03-18T17:37:14.416Z,54.48
2023-03-18T17:39:59.788Z,54.09
2023-03-18T17:42:47.548Z,53.79
2023-03-18T17:45:35.062Z,55.28
2023-03-18T17:48:23.638Z,59.81
2023-03-18T17:51:20.634Z,60.29
2023-03-18T17:54:05.973Z,60.99
2023-03-18T17:56:52.186Z,60.25
2023-03-18T17:59:37.484Z,60.54
2023-03-18T18:02:23.576Z,60.97
2023-03-18T18:05:17.270Z,61.46
2023-03-18T18:08:02.516Z,61.52
2023-03-18T18:10:49.112Z,61.39
2023-03-18T18:13:34.504Z,61.39
2023-03-18T18:16:20.402Z,61.21
2023-03-18T18:19:05.770Z,61.73
2023-03-18T18:21:52.981Z,61.69
2023-03-18T18:24:38.497Z,61.40
2023-03-18T18:27:24.047Z,62.04
2023-03-18T18:30:21.047Z,61.80
2023-03-18T18:33:06.173Z,60.64
2023-03-18T18:35:52.017Z,60.34
2023-03-18T18:38:38.329Z,55.98
2023-03-18T18:41:24.033Z,54.86
2023-03-18T18:44:09.479Z,54.45
2023-03-18T18:46:54.594Z,54.41
2023-03-18T18:49:40.005Z,54.82
2023-03-18T18:52:25.210Z,54.49
2023-03-18T18:55:11.112Z,54.93
2023-03-18T18:57:56.245Z,54.60
2023-03-18T19:00:41.708Z,54.83
2023-03-18T19:03:30.727Z,55.16
2023-03-18T19:06:28.176Z,55.38
2023-03-18T19:09:17.372Z,55.92
2023-03-18T19:12:02.697Z,55.40
2023-03-18T19:14:47.914Z,55.51
2023-03-18T19:17:33.354Z,56.20
2023-03-18T19:20:28.564Z,57.35
2023-03-18T19:23:17.272Z,57.77
2023-03-18T19:26:10.024Z,57.98
2023-03-18T19:28:58.774Z,58.36
2023-03-18T19:31:44.451Z,58.59
2023-03-18T19:34:30.219Z,58.18
2023-03-18T19:37:19.004Z,58.60
2023-03-18T19:40:21.922Z,58.65
2023-03-18T19:43:25.032Z,59.34
2023-03-18T19:46:30.515Z,58.92
2023-03-18T19:49:17.751Z,59.55
2023-03-18T19:52:03.188Z,59.97
2023-03-18T19:54:52.007Z,60.20
2023-03-18T19:57:38.103Z,61.76
2023-03-18T20:00:25.401Z,62.56
2023-03-18T20:03:16.773Z,62.04
2023-03-18T20:06:01.966Z,63.41
2023-03-18T20:08:47.841Z,63.62
2023-03-18T20:11:33.158Z,62.33
2023-03-18T20:14:27.908Z,61.54
2023-03-18T20:17:29.231Z,61.90
2023-03-18T20:20:30.110Z,61.49
2023-03-18T20:23:26.232Z,60.62
2023-03-18T20:26:11.857Z,60.74
2023-03-18T20:28:57.303Z,60.42
2023-03-18T20:31:43.456Z,60.68
2023-03-18T20:34:28.610Z,60.34
2023-03-18T20:37:30.063Z,60.95
2023-03-18T20:40:33.389Z,61.02
2023-03-18T20:43:20.804Z,60.77
2023-03-18T20:46:06.109Z,61.46
2023-03-18T20:48:51.434Z,61.32
2023-03-18T20:51:38.079Z,62.35
2023-03-18T20:54:29.344Z,63.51
2023-03-18T20:57:14.748Z,64.50
2023-03-18T21:00:00.220Z,63.81
2023-03-18T21:02:53.726Z,63.46
2023-03-18T21:05:38.882Z,63.42
2023-03-18T21:08:25.541Z,63.57
2023-03-18T21:11:20.302Z,62.78
2023-03-18T21:14:05.660Z,62.91
2023-03-18T21:16:50.889Z,62.89
2023-03-18T21:19:36.283Z,63.50
2023-03-18T21:22:25.970Z,63.70
2023-03-18T21:25:22.821Z,63.97
2023-03-18T21:28:13.541Z,64.14
2023-03-18T21:30:58.958Z,63.71
2023-03-18T21:33:44.424Z,63.38
2023-03-18T21:36:29.851Z,63.59
2023-03-18T21:39:14.986Z,64.40
2023-03-18T21:42:00.278Z,64.80
2023-03-18T21:44:45.767Z,65.96
2023-03-18T21:47:30.712Z,65.73
2023-03-18T21:50:26.634Z,66.21
2023-03-18T21:53:16.673Z,65.94
2023-03-18T21:56:02.236Z,66.59
2023-03-18T21:58:47.890Z,65.95
2023-03-18T22:01:33.532Z,65.68
2023-03-18T22:04:18.977Z,65.12
2023-03-18T22:07:04.754Z,65.48
2023-03-18T22:10:40.562Z,66.08
2023-03-18T22:13:26.919Z,65.73
2023-03-18T22:16:14.205Z,65.58
2023-03-18T22:18:59.279Z,65.05
2023-03-18T22:21:45.056Z,64.45
2023-03-18T22:24:30.293Z,64.22
2023-03-18T22:27:27.092Z,64.22
2023-03-18T22:30:12.990Z,64.02
2023-03-18T22:32:59.767Z,63.58
2023-03-18T22:35:45.184Z,63.42
2023-03-18T22:38:30.683Z,65.12
2023-03-18T22:41:19.623Z,66.59
2023-03-18T22:44:05.438Z,66.92
2023-03-18T22:46:51.009Z,67.23
2023-03-18T22:49:36.302Z,67.52
2023-03-18T22:52:29.189Z,67.45
2023-03-18T22:55:21.919Z,66.92
2023-03-18T22:58:20.745Z,66.96
2023-03-18T23:01:07.035Z,67.08
2023-03-18T23:03:52.488Z,66.59
2023-03-18T23:06:38.068Z,66.44
2023-03-18T23:09:23.144Z,66.67
2023-03-18T23:12:11.260Z,66.04
2023-03-18T23:14:56.908Z,65.98
2023-03-18T23:17:42.092Z,66.25
2023-03-18T23:20:27.573Z,65.90
2023-03-18T23:23:14.287Z,66.10
2023-03-18T23:25:59.387Z,65.92
2023-03-18T23:28:45.613Z,66.24
2023-03-18T23:31:31.752Z,66.02
2023-03-18T23:34:17.235Z,66.21
2023-03-18T23:37:02.463Z,65.76
2023-03-18T23:39:47.568Z,65.68
2023-03-18T23:42:33.290Z,65.56
2023-03-18T23:45:19.017Z,65.67
2023-03-18T23:48:04.610Z,66.00
2023-03-18T23:50:50.100Z,65.97
2023-03-18T23:53:35.594Z,66.12
2023-03-18T23:56:20.876Z,66.39
2023-03-18T23:59:06.628Z,67.32
